createdAt,value
2022-08-17T00:02:18.087Z,18.92
2022-08-17T00:04:51.686Z,18.90
2022-08-17T00:07:18.318Z,18.94
2022-08-17T00:09:45.035Z,18.93
2022-08-17T00:12:41.444Z,18.86
2022-08-17T00:14:58.343Z,18.86
2022-08-17T00:17:25.497Z,18.73
2022-08-17T00:19:52.215Z,18.66
2022-08-17T00:22:34.464Z,18.62
2022-08-17T00:25:07.368Z,18.60
2022-08-17T00:27:35.151Z,18.62
2022-08-17T00:30:01.864Z,18.61
2022-08-17T00:33:13.884Z,18.57
2022-08-17T00:35:18.362Z,18.55
2022-08-17T00:37:45.365Z,18.59
2022-08-17T00:40:15.401Z,18.57
2022-08-17T00:42:43.939Z,18.57
2022-08-17T00:45:14.227Z,18.52
2022-08-17T00:47:41.689Z,18.39
2022-08-17T00:50:12.594Z,18.35
2022-08-17T00:52:49.467Z,18.30
2022-08-17T00:55:16.408Z,18.29
2022-08-17T00:57:46.812Z,18.27
2022-08-17T01:00:30.177Z,18.18
2022-08-17T01:03:06.305Z,18.24
2022-08-17T01:05:35.119Z,18.23
2022-08-17T01:08:02.605Z,18.20
2022-08-17T01:10:58.416Z,18.16
2022-08-17T01:13:40.158Z,18.13
2022-08-17T01:16:29.633Z,18.11
2022-08-17T01:19:09.211Z,18.09
2022-08-17T01:21:46.724Z,18.11
2022-08-17T01:24:13.708Z,18.13
2022-08-17T01:26:43.175Z,18.04
2022-08-17T01:29:11.632Z,17.93
2022-08-17T01:31:45.093Z,17.94
2022-08-17T01:34:14.846Z,17.92
2022-08-17T01:36:44.619Z,17.86
2022-08-17T01:39:23.358Z,17.80
2022-08-17T01:41:53.447Z,17.79
2022-08-17T01:44:21.987Z,17.78
2022-08-17T01:46:48.854Z,17.80
2022-08-17T01:49:15.855Z,17.81
2022-08-17T01:51:42.636Z,17.75
2022-08-17T01:54:13.509Z,17.74
2022-08-17T01:56:42.459Z,17.76
2022-08-17T01:59:10.303Z,17.70
2022-08-17T02:01:37.996Z,17.73
2022-08-17T02:04:06.507Z,17.69
2022-08-17T02:06:52.440Z,17.75
2022-08-17T02:09:23.342Z,17.73
2022-08-17T02:11:50.824Z,17.69
2022-08-17T02:14:18.021Z,17.64
2022-08-17T02:16:44.728Z,17.57
2022-08-17T02:19:15.886Z,17.52
2022-08-17T02:21:45.943Z,17.51
2022-08-17T02:24:17.869Z,17.46
2022-08-17T02:27:05.255Z,17.33
2022-08-17T02:29:32.481Z,17.27
2022-08-17T02:32:00.266Z,17.31
2022-08-17T02:34:27.532Z,17.32
2022-08-17T02:36:54.532Z,17.25
2022-08-17T02:39:21.691Z,17.26
2022-08-17T02:41:48.883Z,17.20
2022-08-17T02:44:38.998Z,17.19
2022-08-17T02:47:02.395Z,17.13
2022-08-17T02:49:29.015Z,17.16
2022-08-17T02:51:58.888Z,17.14
2022-08-17T02:54:40.659Z,17.12
2022-08-17T02:57:09.555Z,17.08
2022-08-17T02:59:36.343Z,17.05
2022-08-17T03:02:04.272Z,17.00
2022-08-17T03:04:31.738Z,17.03
2022-08-17T03:07:02.509Z,16.97
2022-08-17T03:09:29.200Z,16.95
2022-08-17T03:12:03.269Z,16.95
2022-08-17T03:14:32.349Z,16.98
2022-08-17T03:16:59.344Z,16.92
2022-08-17T03:19:26.120Z,16.86
2022-08-17T03:21:55.205Z,16.81
2022-08-17T03:24:22.240Z,16.75
2022-08-17T03:26:55.767Z,16.68
2022-08-17T03:29:22.481Z,16.72
2022-08-17T03:31:50.079Z,16.70
2022-08-17T03:34:17.894Z,16.66
2022-08-17T03:36:45.016Z,16.68
2022-08-17T03:39:11.771Z,16.65
2022-08-17T03:41:39.093Z,16.63
2022-08-17T03:44:05.941Z,16.67
2022-08-17T03:46:51.545Z,16.71
2022-08-17T03:49:36.712Z,16.60
2022-08-17T03:52:22.549Z,16.56
2022-08-17T03:55:07.783Z,16.51
2022-08-17T03:57:34.576Z,16.48
2022-08-17T04:00:01.255Z,16.51
2022-08-17T04:02:32.977Z,16.50
2022-08-17T04:04:59.957Z,16.48
2022-08-17T04:07:29.078Z,16.50
2022-08-17T04:09:57.961Z,16.49
2022-08-17T04:12:25.726Z,16.51
2022-08-17T04:14:54.656Z,16.54
2022-08-17T04:17:28.516Z,16.49
2022-08-17T04:19:55.892Z,16.53
2022-08-17T04:22:30.189Z,16.58
2022-08-17T04:25:16.094Z,16.67
2022-08-17T04:27:42.835Z,16.73
2022-08-17T04:30:10.541Z,16.79
2022-08-17T04:33:06.089Z,16.80
2022-08-17T04:35:52.131Z,16.87
2022-08-17T04:38:21.663Z,16.92
2022-08-17T04:41:07.545Z,16.93
2022-08-17T04:43:35.688Z,16.98
2022-08-17T04:46:09.090Z,17.04
2022-08-17T04:48:38.882Z,17.13
2022-08-17T04:51:18.187Z,17.20
2022-08-17T04:53:53.967Z,17.31
2022-08-17T04:56:23.372Z,17.38
2022-08-17T04:58:51.929Z,17.46
2022-08-17T05:01:24.137Z,17.54
2022-08-17T05:03:56.296Z,17.64
2022-08-17T05:06:23.230Z,17.74
2022-08-17T05:08:50.165Z,17.86
2022-08-17T05:11:17.399Z,18.03
2022-08-17T05:13:44.770Z,18.13
2022-08-17T05:16:12.074Z,18.24
2022-08-17T05:18:39.123Z,18.35
2022-08-17T05:21:06.909Z,18.47
2022-08-17T05:23:41.711Z,18.68
2022-08-17T05:26:19.880Z,18.80
2022-08-17T05:28:59.526Z,18.97
2022-08-17T05:31:28.795Z,19.11
2022-08-17T05:33:55.577Z,19.34
2022-08-17T05:36:41.640Z,19.53
2022-08-17T05:39:13.443Z,19.82
2022-08-17T05:41:45.591Z,20.04
2022-08-17T05:44:12.215Z,20.37
2022-08-17T05:46:43.558Z,20.60
2022-08-17T05:49:11.929Z,20.89
2022-08-17T05:52:07.832Z,21.16
2022-08-17T05:54:34.522Z,21.44
2022-08-17T05:57:20.827Z,21.74
2022-08-17T05:59:56.930Z,22.00
2022-08-17T06:02:49.035Z,22.29
2022-08-17T06:05:46.381Z,22.45
2022-08-17T06:08:37.897Z,22.69
2022-08-17T06:11:26.372Z,22.80
2022-08-17T06:14:06.935Z,23.24
2022-08-17T06:16:41.406Z,23.50
2022-08-17T06:19:14.013Z,23.65
2022-08-17T06:21:46.753Z,24.01
2022-08-17T06:24:42.001Z,24.13
2022-08-17T06:27:37.513Z,24.25
2022-08-17T06:30:12.571Z,24.33
2022-08-17T06:32:43.695Z,24.37
2022-08-17T06:35:14.080Z,24.76
2022-08-17T06:37:59.434Z,24.83
2022-08-17T06:40:59.285Z,25.01
2022-08-17T06:43:26.242Z,25.15
2022-08-17T06:46:07.038Z,25.53
2022-08-17T06:48:39.876Z,25.83
2022-08-17T06:51:18.393Z,26.40
2022-08-17T06:54:05.520Z,26.54
2022-08-17T06:56:54.042Z,27.26
2022-08-17T06:59:54.151Z,27.97
2022-08-17T07:02:51.065Z,28.61
2022-08-17T07:05:23.123Z,29.44
2022-08-17T07:08:40.436Z,30.39
2022-08-17T07:11:13.402Z,31.17
2022-08-17T07:14:15.182Z,31.92
2022-08-17T07:16:50.768Z,32.39
2022-08-17T07:19:22.520Z,33.13
2022-08-17T07:22:01.217Z,32.95
2022-08-17T07:24:47.275Z,34.32
2022-08-17T07:27:17.187Z,35.17
2022-08-17T07:30:10.236Z,35.10
2022-08-17T07:32:47.595Z,35.73
2022-08-17T07:35:44.016Z,35.49
2022-08-17T07:38:26.922Z,35.51
2022-08-17T07:41:04.395Z,36.42
2022-08-17T07:43:39.951Z,36.38
2022-08-17T07:46:53.755Z,37.12
2022-08-17T07:49:22.822Z,36.80
2022-08-17T07:51:50.468Z,37.64
2022-08-17T07:54:22.952Z,38.51
2022-08-17T07:56:57.416Z,38.92
2022-08-17T07:59:33.349Z,39.30
2022-08-17T08:02:03.743Z,38.95
2022-08-17T08:04:59.613Z,39.73
2022-08-17T08:07:40.088Z,39.24
2022-08-17T08:10:06.960Z,39.48
2022-08-17T08:12:42.610Z,38.84
2022-08-17T08:15:19.635Z,39.33
2022-08-17T08:17:53.488Z,39.60
2022-08-17T08:20:51.884Z,40.52
2022-08-17T08:23:25.743Z,40.61
2022-08-17T08:26:07.420Z,41.76
2022-08-17T08:28:37.000Z,41.74
2022-08-17T08:31:24.329Z,41.63
2022-08-17T08:34:59.015Z,41.63
2022-08-17T08:37:16.307Z,42.57
2022-08-17T08:39:53.336Z,42.33
2022-08-17T08:42:23.421Z,42.65
2022-08-17T08:45:08.260Z,43.05
2022-08-17T08:47:53.946Z,43.74
2022-08-17T08:50:37.541Z,43.46
2022-08-17T08:53:42.590Z,43.24
2022-08-17T08:56:19.080Z,43.39
2022-08-17T08:59:07.270Z,43.81
2022-08-17T09:01:51.251Z,43.51
2022-08-17T09:04:29.900Z,45.18
2022-08-17T09:07:11.465Z,45.26
2022-08-17T09:09:48.549Z,44.96
2022-08-17T09:12:32.328Z,45.30
2022-08-17T09:15:12.959Z,45.75
2022-08-17T09:19:02.745Z,45.70
2022-08-17T09:21:14.472Z,46.49
2022-08-17T09:24:33.568Z,44.68
2022-08-17T09:27:23.709Z,45.59
2022-08-17T09:29:57.863Z,46.11
2022-08-17T09:32:55.358Z,46.60
2022-08-17T09:35:37.361Z,46.65
2022-08-17T09:38:24.040Z,46.33
2022-08-17T09:41:05.253Z,44.23
2022-08-17T09:43:31.881Z,46.88
2022-08-17T09:46:08.974Z,47.39
2022-08-17T09:48:42.926Z,46.91
2022-08-17T09:51:12.182Z,47.55
2022-08-17T09:53:39.619Z,48.34
2022-08-17T09:56:15.260Z,47.61
2022-08-17T09:59:05.015Z,48.85
2022-08-17T10:01:36.352Z,49.18
2022-08-17T10:04:29.816Z,49.56
2022-08-17T10:07:15.366Z,49.90
2022-08-17T10:09:56.096Z,50.41
2022-08-17T10:12:40.360Z,48.71
2022-08-17T10:15:15.924Z,49.43
2022-08-17T10:17:59.357Z,49.20
2022-08-17T10:20:30.175Z,48.63
2022-08-17T10:23:21.629Z,49.97
2022-08-17T10:26:04.832Z,49.47
2022-08-17T10:28:39.414Z,49.43
2022-08-17T10:34:41.502Z,48.25
2022-08-17T10:37:40.564Z,49.06
2022-08-17T10:40:10.048Z,49.48
2022-08-17T10:42:50.647Z,50.38
2022-08-17T10:45:26.684Z,50.88
2022-08-17T10:48:04.771Z,47.87
2022-08-17T10:50:59.780Z,50.06
2022-08-17T10:53:32.334Z,48.86
2022-08-17T10:56:38.392Z,50.00
2022-08-17T10:59:05.661Z,50.13
2022-08-17T11:01:32.358Z,50.72
2022-08-17T11:04:07.485Z,50.65
2022-08-17T11:06:47.578Z,51.71
2022-08-17T11:09:38.886Z,50.88
2022-08-17T11:12:38.236Z,51.08
2022-08-17T11:15:26.482Z,52.18
2022-08-17T11:18:11.516Z,52.33
2022-08-17T11:21:20.413Z,52.63
2022-08-17T11:24:30.564Z,53.17
2022-08-17T11:27:19.741Z,51.25
2022-08-17T11:30:01.506Z,52.62
2022-08-17T11:32:31.886Z,53.68
2022-08-17T11:35:14.103Z,53.23
2022-08-17T11:37:49.708Z,52.63
2022-08-17T11:40:37.629Z,53.05
2022-08-17T11:43:07.579Z,50.60
2022-08-17T11:45:36.927Z,50.54
2022-08-17T11:48:46.281Z,49.38
2022-08-17T11:51:33.812Z,51.76
2022-08-17T11:54:31.718Z,53.16
2022-08-17T11:56:59.186Z,54.01
2022-08-17T11:59:35.967Z,53.06
2022-08-17T12:02:35.154Z,53.10
2022-08-17T12:05:11.878Z,52.10
2022-08-17T12:08:18.430Z,52.58
2022-08-17T12:11:00.479Z,52.66
2022-08-17T12:13:37.055Z,53.18
2022-08-17T12:16:08.269Z,52.77
2022-08-17T12:18:37.578Z,53.15
2022-08-17T12:21:07.030Z,53.04
2022-08-17T12:23:48.422Z,52.28
2022-08-17T12:26:19.933Z,51.67
2022-08-17T12:28:55.911Z,52.85
2022-08-17T12:31:31.027Z,52.65
2022-08-17T12:34:00.374Z,52.41
2022-08-17T12:36:28.565Z,52.51
2022-08-17T12:39:14.023Z,52.42
2022-08-17T12:41:47.932Z,53.63
2022-08-17T12:44:20.950Z,53.20
2022-08-17T12:47:21.075Z,52.64
2022-08-17T12:49:51.676Z,54.07
2022-08-17T12:52:25.987Z,53.14
2022-08-17T12:55:02.392Z,53.12
2022-08-17T12:57:38.242Z,52.05
2022-08-17T13:00:10.835Z,51.27
2022-08-17T13:02:46.478Z,52.63
2022-08-17T13:05:37.233Z,52.45
2022-08-17T13:08:19.888Z,52.31
2022-08-17T13:11:02.049Z,52.32
2022-08-17T13:13:33.016Z,51.32
2022-08-17T13:16:14.807Z,51.01
2022-08-17T13:18:55.832Z,51.66
2022-08-17T13:21:30.330Z,51.04
2022-08-17T13:24:11.432Z,52.21
2022-08-17T13:27:07.820Z,52.02
2022-08-17T13:29:39.074Z,51.83
2022-08-17T13:32:13.412Z,51.99
2022-08-17T13:35:13.103Z,51.69
2022-08-17T13:37:42.639Z,52.11
2022-08-17T13:40:09.406Z,51.44
2022-08-17T13:42:51.741Z,51.69
2022-08-17T13:45:36.483Z,52.01
2022-08-17T13:48:30.287Z,52.04
2022-08-17T13:50:56.926Z,51.74
2022-08-17T13:53:31.363Z,48.79
2022-08-17T13:56:07.385Z,48.80
2022-08-17T13:58:56.277Z,45.10
2022-08-17T14:01:32.681Z,45.15
2022-08-17T14:04:02.316Z,43.52
2022-08-17T14:06:51.819Z,42.77
2022-08-17T14:09:37.012Z,40.98
2022-08-17T14:12:08.932Z,39.91
2022-08-17T14:14:36.323Z,39.99
2022-08-17T14:17:03.659Z,39.57
2022-08-17T14:19:30.643Z,39.34
2022-08-17T14:21:59.775Z,38.55
2022-08-17T14:24:41.237Z,38.09
2022-08-17T14:27:11.917Z,37.68
2022-08-17T14:29:41.115Z,37.37
2022-08-17T14:32:19.044Z,36.77
2022-08-17T14:34:47.057Z,36.59
2022-08-17T14:37:13.739Z,36.35
2022-08-17T14:39:40.499Z,36.35
2022-08-17T14:42:08.467Z,36.35
2022-08-17T14:44:35.140Z,36.20
2022-08-17T14:47:01.818Z,36.02
2022-08-17T14:49:30.236Z,35.63
2022-08-17T14:51:57.522Z,35.69
2022-08-17T14:54:33.975Z,35.43
2022-08-17T14:57:23.639Z,35.00
2022-08-17T14:59:53.219Z,35.28
2022-08-17T15:02:29.425Z,35.21
2022-08-17T15:05:03.185Z,35.00
2022-08-17T15:07:30.114Z,34.95
2022-08-17T15:09:58.728Z,34.89
2022-08-17T15:12:32.369Z,34.74
2022-08-17T15:15:00.857Z,34.86
2022-08-17T15:17:44.298Z,34.70
2022-08-17T15:20:21.073Z,34.55
2022-08-17T15:22:49.809Z,34.37
2022-08-17T15:25:19.218Z,34.30
2022-08-17T15:27:46.283Z,34.36
2022-08-17T15:30:13.769Z,34.19
2022-08-17T15:32:50.896Z,34.05
2022-08-17T15:35:27.407Z,34.09
2022-08-17T15:38:06.222Z,34.11
2022-08-17T15:40:39.205Z,34.10
2022-08-17T15:43:12.795Z,34.02
2022-08-17T15:45:40.038Z,33.93
2022-08-17T15:48:07.529Z,33.87
2022-08-17T15:50:34.744Z,33.77
2022-08-17T15:53:03.565Z,33.51
2022-08-17T15:55:32.074Z,33.33
2022-08-17T15:57:59.604Z,33.25
2022-08-17T16:00:29.180Z,33.14
2022-08-17T16:03:45.398Z,33.06
2022-08-17T16:05:46.624Z,33.07
2022-08-17T16:08:18.541Z,33.00
2022-08-17T16:10:48.212Z,32.94
2022-08-17T16:13:17.271Z,32.89
2022-08-17T16:15:49.737Z,32.85
2022-08-17T16:18:26.442Z,32.93
2022-08-17T16:20:53.472Z,32.90
2022-08-17T16:23:20.441Z,32.86
2022-08-17T16:25:52.782Z,32.86
2022-08-17T16:28:21.860Z,32.78
2022-08-17T16:30:48.565Z,32.74
2022-08-17T16:33:16.694Z,32.66
2022-08-17T16:35:43.431Z,32.63
2022-08-17T16:38:10.919Z,32.59
2022-08-17T16:40:38.000Z,32.47
2022-08-17T16:43:10.551Z,32.38
2022-08-17T16:45:42.132Z,32.24
2022-08-17T16:48:13.718Z,32.12
2022-08-17T16:50:40.476Z,32.13
2022-08-17T16:53:16.502Z,32.04
2022-08-17T16:55:48.083Z,31.96
2022-08-17T16:58:15.624Z,31.92
2022-08-17T17:00:44.187Z,31.86
2022-08-17T17:03:20.659Z,31.66
2022-08-17T17:05:59.728Z,31.64
2022-08-17T17:08:49.007Z,31.59
2022-08-17T17:11:23.085Z,31.44
2022-08-17T17:13:56.617Z,31.25
2022-08-17T17:16:38.279Z,31.09
2022-08-17T17:19:17.861Z,30.76
2022-08-17T17:22:15.446Z,30.60
2022-08-17T17:25:33.088Z,30.42
2022-08-17T17:28:30.353Z,30.27
2022-08-17T17:31:05.827Z,30.15
2022-08-17T17:33:47.398Z,29.94
2022-08-17T17:36:25.511Z,29.77
2022-08-17T17:38:59.179Z,29.71
2022-08-17T17:41:34.359Z,29.60
2022-08-17T17:44:12.992Z,29.56
2022-08-17T17:46:50.906Z,29.46
2022-08-17T17:49:18.795Z,29.27
2022-08-17T17:52:09.875Z,29.15
2022-08-17T17:54:40.733Z,29.00
2022-08-17T17:57:26.548Z,28.98
2022-08-17T18:00:09.752Z,28.73
2022-08-17T18:02:57.340Z,28.56
2022-08-17T18:05:44.569Z,28.54
2022-08-17T18:08:41.355Z,28.36
2022-08-17T18:11:25.044Z,28.16
2022-08-17T18:14:22.872Z,28.08
2022-08-17T18:16:55.620Z,27.97
2022-08-17T18:19:25.559Z,27.78
2022-08-17T18:22:02.871Z,27.62
2022-08-17T18:24:35.658Z,27.42
2022-08-17T18:27:20.410Z,27.31
2022-08-17T18:29:48.851Z,27.14
2022-08-17T18:32:37.104Z,26.96
2022-08-17T18:35:10.064Z,26.86
2022-08-17T18:37:47.498Z,26.70
2022-08-17T18:40:18.031Z,26.60
2022-08-17T18:42:46.492Z,26.47
2022-08-17T18:45:30.034Z,26.35
2022-08-17T18:47:56.852Z,26.21
2022-08-17T18:50:41.609Z,26.11
2022-08-17T18:53:26.645Z,25.96
2022-08-17T18:56:16.427Z,25.76
2022-08-17T18:58:50.287Z,25.64
2022-08-17T19:01:19.390Z,25.50
2022-08-17T19:03:46.497Z,25.41
2022-08-17T19:06:34.017Z,25.38
2022-08-17T19:09:01.049Z,25.33
2022-08-17T19:11:31.630Z,25.29
2022-08-17T19:14:11.899Z,25.19
2022-08-17T19:16:49.340Z,25.08
2022-08-17T19:19:23.303Z,24.97
2022-08-17T19:22:02.798Z,24.87
2022-08-17T19:24:33.531Z,24.83
2022-08-17T19:27:18.027Z,24.81
2022-08-17T19:30:08.101Z,24.72
2022-08-17T19:32:35.761Z,24.62
2022-08-17T19:35:05.997Z,24.50
2022-08-17T19:37:44.738Z,24.34
2022-08-17T19:40:51.852Z,24.31
2022-08-17T19:43:34.627Z,24.26
2022-08-17T19:46:28.657Z,24.25
2022-08-17T19:49:02.598Z,24.16
2022-08-17T19:51:38.692Z,24.13
2022-08-17T19:54:26.954Z,24.11
2022-08-17T19:57:12.239Z,24.06
2022-08-17T19:59:56.937Z,24.00
2022-08-17T20:02:41.520Z,23.94
2022-08-17T20:06:08.429Z,23.90
2022-08-17T20:08:27.835Z,23.90
2022-08-17T20:11:01.872Z,23.86
2022-08-17T20:14:07.955Z,23.82
2022-08-17T20:16:34.895Z,23.84
2022-08-17T20:19:08.435Z,23.75
2022-08-17T20:21:41.761Z,23.75
2022-08-17T20:24:20.202Z,23.68
2022-08-17T20:26:59.879Z,23.64
2022-08-17T20:29:39.987Z,23.62
2022-08-17T20:32:18.816Z,23.55
2022-08-17T20:34:47.670Z,23.55
2022-08-17T20:37:17.044Z,23.51
2022-08-17T20:40:03.738Z,23.39
2022-08-17T20:42:33.585Z,23.35
2022-08-17T20:45:26.143Z,23.37
2022-08-17T20:48:17.372Z,23.29
2022-08-17T20:50:43.824Z,23.24
2022-08-17T20:53:15.184Z,23.19
2022-08-17T20:55:52.485Z,23.12
2022-08-17T20:58:23.243Z,23.06
2022-08-17T21:01:00.079Z,23.04
2022-08-17T21:03:39.937Z,23.03
2022-08-17T21:06:19.787Z,23.05
2022-08-17T21:08:55.152Z,23.05
2022-08-17T21:12:03.089Z,22.97
2022-08-17T21:14:54.197Z,22.93
2022-08-17T21:17:36.090Z,22.91
2022-08-17T21:20:21.196Z,22.83
2022-08-17T21:22:53.801Z,22.78
2022-08-17T21:25:48.236Z,22.74
2022-08-17T21:28:38.261Z,22.71
2022-08-17T21:31:43.177Z,22.61
2022-08-17T21:34:15.814Z,22.46
2022-08-17T21:36:44.112Z,22.41
2022-08-17T21:39:17.115Z,22.35
2022-08-17T21:41:52.912Z,22.36
2022-08-17T21:44:21.542Z,22.28
2022-08-17T21:46:50.508Z,22.21
2022-08-17T21:49:21.038Z,22.25
2022-08-17T21:51:51.784Z,22.26
2022-08-17T21:54:38.828Z,22.24
2022-08-17T21:57:14.916Z,22.20
2022-08-17T21:59:42.943Z,22.18
2022-08-17T22:02:19.498Z,22.23
2022-08-17T22:04:57.860Z,22.21
2022-08-17T22:07:47.641Z,22.23
2022-08-17T22:10:33.828Z,22.26
2022-08-17T22:13:17.066Z,22.24
2022-08-17T22:16:28.489Z,22.23
2022-08-17T22:18:53.717Z,22.25
2022-08-17T22:21:22.719Z,22.21
2022-08-17T22:24:06.519Z,22.20
2022-08-17T22:27:00.316Z,22.16
2022-08-17T22:29:47.951Z,22.14
2022-08-17T22:32:42.296Z,22.12
2022-08-17T22:35:35.789Z,22.07
2022-08-17T22:38:20.901Z,22.13
2022-08-17T22:40:57.678Z,22.02
2022-08-17T22:43:28.592Z,21.93
2022-08-17T22:45:59.791Z,21.92
2022-08-17T22:48:29.368Z,21.87
2022-08-17T22:51:12.873Z,21.83
2022-08-17T22:54:34.340Z,21.77
2022-08-17T22:57:23.703Z,21.71
2022-08-17T22:59:54.965Z,21.58
2022-08-17T23:02:33.565Z,21.55
2022-08-17T23:05:16.756Z,21.53
2022-08-17T23:07:46.027Z,21.54
2022-08-17T23:10:14.069Z,21.53
2022-08-17T23:12:40.856Z,21.53
2022-08-17T23:15:16.306Z,21.52
2022-08-17T23:17:44.462Z,21.49
2022-08-17T23:20:15.252Z,21.53
2022-08-17T23:22:51.952Z,21.48
2022-08-17T23:25:44.592Z,21.58
2022-08-17T23:28:11.547Z,21.67
2022-08-17T23:30:46.475Z,21.73
2022-08-17T23:33:21.358Z,21.79
2022-08-17T23:35:48.455Z,21.76
2022-08-17T23:38:15.096Z,21.81
2022-08-17T23:40:41.837Z,21.85
2022-08-17T23:43:24.760Z,21.84
2022-08-17T23:45:59.715Z,21.85
2022-08-17T23:48:35.016Z,21.86
2022-08-17T23:51:05.973Z,21.87
2022-08-17T23:53:34.602Z,21.89
2022-08-17T23:56:09.489Z,21.88
2022-08-17T23:58:38.611Z,21.88
